Time;durP1;ratioP1;P1;durP2;ratioP2;P2;SDS_P1;SDS_P2;PMS_P1;PMS_P2;Temp;Humidity;BMP_temperature;BMP_pressure;BME280_temperature;BME280_humidity;BME280_pressure;Samples;Min_cycle;Max_cycle;Signal;HPM_P1;HPM_P2
2021/06/23 00:12:18;;;;;;;11.20;8.70;;;;;;;-146.52;100.00;63329.72;1021188;29;20103;-90
2021/06/23 00:12:53;;;;;;;10.20;9.13;;;;;;;-146.52;100.00;63329.72;1016982;29;20484;-88
2021/06/23 00:13:23;;;;;;;10.55;8.20;;;;;;;-146.52;100.00;63329.72;1013462;29;20016;-90
2021/06/23 00:13:54;;;;;;;11.48;8.70;;;;;;;-146.52;100.00;63329.72;1005384;29;20021;-87
2021/06/23 00:14:25;;;;;;;11.20;9.95;;;;;;;-146.52;100.00;63329.72;1001834;29;20033;-89
2021/06/23 00:14:56;;;;;;;9.73;8.48;;;;;;;-146.52;100.00;63329.72;1013514;29;20024;-90
2021/06/23 00:15:26;;;;;;;9.55;8.52;;;;;;;-146.52;100.00;63329.72;1003775;29;20018;-89
2021/06/23 00:15:57;;;;;;;9.77;8.75;;;;;;;-146.52;100.00;63329.72;1021562;29;20019;-90
2021/06/23 00:16:28;;;;;;;10.07;8.60;;;;;;;-146.52;100.00;63329.72;1014371;29;20044;-88
2021/06/23 00:16:58;;;;;;;9.85;8.73;;;;;;;-146.52;100.00;63329.72;1010559;29;20077;-88
2021/06/23 00:17:29;;;;;;;10.55;8.48;;;;;;;-146.52;100.00;63329.72;1014568;29;20031;-90
2021/06/23 00:18:01;;;;;;;9.93;8.98;;;;;;;-146.52;100.00;63329.72;1010952;29;20017;-90
2021/06/23 00:18:32;;;;;;;10.40;9.25;;;;;;;-146.52;100.00;63329.72;1018644;29;20020;-89
2021/06/23 00:19:02;;;;;;;10.10;8.45;;;;;;;-146.52;100.00;63329.72;1015000;29;20021;-90
2021/06/23 00:19:33;;;;;;;8.88;7.97;;;;;;;-146.52;100.00;63329.72;1018982;29;20107;-89
2021/06/23 00:20:04;;;;;;;9.07;7.88;;;;;;;-146.52;100.00;63329.72;1014796;29;20060;-89
2021/06/23 00:20:35;;;;;;;9.57;8.57;;;;;;;-146.52;100.00;63329.72;1018288;29;20028;-87
2021/06/23 00:21:06;;;;;;;10.27;9.15;;;;;;;-146.52;100.00;63329.72;1026188;29;20020;-88
2021/06/23 00:21:37;;;;;;;10.02;8.18;;;;;;;-146.52;100.00;63329.72;1017450;29;20027;-89
2021/06/23 00:22:07;;;;;;;9.02;8.00;;;;;;;-146.52;100.00;63329.72;1021345;29;20034;-88
2021/06/23 00:22:38;;;;;;;10.07;8.05;;;;;;;-146.52;100.00;63329.72;1021050;29;20030;-87
2021/06/23 00:23:09;;;;;;;8.40;7.50;;;;;;;-146.52;100.00;63329.72;1016901;29;20356;-86
2021/06/23 00:23:39;;;;;;;10.23;7.90;;;;;;;-146.52;100.00;63329.72;1021001;29;20028;-88
2021/06/23 00:24:10;;;;;;;8.40;7.13;;;;;;;-146.52;100.00;63329.72;1013192;29;20028;-88
2021/06/23 00:24:41;;;;;;;8.48;7.57;;;;;;;-146.52;100.00;63329.72;1009480;29;20061;-90
2021/06/23 00:25:12;;;;;;;8.10;7.30;;;;;;;-146.52;100.00;63329.72;1013314;29;20064;-89
2021/06/23 00:25:43;;;;;;;10.10;8.20;;;;;;;-146.52;100.00;63329.72;1013921;29;20052;-89
2021/06/23 00:42:43;;;;;;;6.82;5.82;;;;;;;-146.52;100.00;63329.72;1015301;29;20023;-87
2021/06/23 00:43:13;;;;;;;6.35;5.45;;;;;;;-146.52;100.00;63329.72;1005870;29;20142;-86
2021/06/23 00:43:47;;;;;;;6.55;5.78;;;;;;;-146.52;100.00;63329.72;1005960;29;20049;-85
2021/06/23 00:44:18;;;;;;;7.13;6.32;;;;;;;-146.52;100.00;63329.72;998012;29;20085;-87
2021/06/23 00:44:48;;;;;;;6.80;5.95;;;;;;;-146.52;100.00;63329.72;1009589;29;20048;-86
2021/06/23 00:45:19;;;;;;;6.85;6.10;;;;;;;-146.52;100.00;63329.72;1009684;29;20169;-86
2021/06/23 00:45:50;;;;;;;8.02;6.72;;;;;;;-146.52;100.00;63329.72;1009643;29;20022;-86
2021/06/23 00:46:20;;;;;;;6.45;5.85;;;;;;;-146.52;100.00;63329.72;1009360;29;20049;-86
2021/06/23 00:46:51;;;;;;;7.75;6.18;;;;;;;-146.52;100.00;63329.72;1001894;29;20115;-87
2021/06/23 00:47:25;;;;;;;7.05;6.35;;;;;;;-146.52;100.00;63329.72;1009260;29;20021;-86
2021/06/23 00:47:56;;;;;;;6.07;5.47;;;;;;;-146.52;100.00;63329.72;1002132;29;20014;-85
2021/06/23 00:48:28;;;;;;;8.35;5.88;;;;;;;-146.52;100.00;63329.72;1009511;29;20021;-86
2021/06/23 00:48:59;;;;;;;6.72;5.75;;;;;;;-146.52;100.00;63329.72;1002252;29;20101;-87
2021/06/23 00:49:31;;;;;;;7.28;6.45;;;;;;;-146.52;100.00;63329.72;1001746;29;20026;-89
2021/06/23 00:50:07;;;;;;;6.43;5.70;;;;;;;-146.52;100.00;63329.72;1005738;29;20017;-86
2021/06/23 00:50:38;;;;;;;8.27;6.32;;;;;;;-146.52;100.00;63329.72;1009325;29;20021;-85
2021/06/23 00:51:09;;;;;;;6.05;5.30;;;;;;;-146.52;100.00;63329.72;1002056;29;20569;-84
2021/06/23 00:51:40;;;;;;;6.03;5.43;;;;;;;-146.52;100.00;63329.72;1001920;29;20165;-86
2021/06/23 00:52:10;;;;;;;5.93;5.32;;;;;;;-146.52;100.00;63329.72;1006881;29;20018;-86
2021/06/23 00:52:41;;;;;;;6.72;5.13;;;;;;;-146.52;100.00;63329.72;1009078;29;20025;-87
2021/06/23 00:53:13;;;;;;;5.43;4.80;;;;;;;-146.52;100.00;63329.72;1013297;29;20100;-87
2021/06/23 00:53:45;;;;;;;5.80;4.85;;;;;;;-146.52;100.00;63329.72;1013356;29;20089;-88
2021/06/23 00:54:16;;;;;;;6.25;5.15;;;;;;;-146.52;100.00;63329.72;1013344;29;20033;-86
2021/06/23 00:54:48;;;;;;;6.03;4.30;;;;;;;-146.52;100.00;63329.72;1008982;29;20037;-88
2021/06/23 00:55:23;;;;;;;6.72;5.30;;;;;;;-146.52;100.00;63329.72;1005634;29;20006;-87
2021/06/23 00:55:55;;;;;;;6.22;5.10;;;;;;;-146.52;100.00;63329.72;1019542;29;20001;-84
2021/06/23 00:56:33;;;;;;;5.30;4.65;;;;;;;-146.52;100.00;63329.72;1011118;29;20037;-85
2021/06/23 00:57:04;;;;;;;6.00;4.70;;;;;;;-146.52;100.00;63329.72;1015246;29;20012;-86
2021/06/23 00:57:35;;;;;;;5.72;4.80;;;;;;;-146.52;100.00;63329.72;1012833;29;20032;-90
2021/06/23 00:58:06;;;;;;;4.85;4.20;;;;;;;-146.52;100.00;63329.72;1009301;29;20022;-87
2021/06/23 00:58:36;;;;;;;4.90;4.20;;;;;;;-146.52;100.00;63329.72;1005661;29;20068;-87
2021/06/23 00:59:09;;;;;;;6.18;4.70;;;;;;;-146.52;100.00;63329.72;1013358;29;20099;-88
2021/06/23 00:59:41;;;;;;;5.70;4.07;;;;;;;-146.52;100.00;63329.72;1005801;29;20045;-88
2021/06/23 01:00:31;;;;;;;4.70;3.75;;;;;;;-146.52;100.00;63329.72;1009624;29;20057;-86
2021/06/23 01:01:09;;;;;;;3.63;3.22;;;;;;;-146.52;100.00;63329.72;1005922;29;20030;-84
2021/06/23 01:01:41;;;;;;;3.78;3.38;;;;;;;-146.52;100.00;63329.72;1009644;29;20094;-86
2021/06/23 01:02:13;;;;;;;4.70;3.50;;;;;;;-146.52;100.00;63329.72;1009679;29;20021;-91
2021/06/23 01:02:45;;;;;;;5.68;3.70;;;;;;;-146.52;100.00;63329.72;1017338;29;20021;-87
2021/06/23 01:03:15;;;;;;;4.07;3.40;;;;;;;-146.52;100.00;63329.72;1009575;29;20022;-89
2021/06/23 01:03:46;;;;;;;5.72;4.28;;;;;;;-146.52;100.00;63329.72;1017365;29;20021;-90
2021/06/23 01:04:17;;;;;;;4.40;3.95;;;;;;;-146.52;100.00;63329.72;1009648;29;20073;-90
2021/06/23 01:04:50;;;;;;;3.88;3.13;;;;;;;-146.52;100.00;63329.72;1009519;29;20037;-89
2021/06/23 01:05:21;;;;;;;4.10;3.70;;;;;;;-146.52;100.00;63329.72;1004637;29;20110;-89
2021/06/23 01:05:52;;;;;;;4.65;3.95;;;;;;;-146.52;100.00;63329.72;1009312;29;20028;-92
2021/06/23 01:06:23;;;;;;;5.20;3.50;;;;;;;-146.52;100.00;63329.72;1013618;29;20023;-89
2021/06/23 01:06:54;;;;;;;4.35;3.95;;;;;;;-146.52;100.00;63329.72;1013515;29;20016;-91
2021/06/23 01:07:25;;;;;;;4.65;3.85;;;;;;;-146.52;100.00;63329.72;1017339;29;20104;-91
2021/06/23 01:07:55;;;;;;;6.18;4.38;;;;;;;-146.52;100.00;63329.72;1013236;29;20029;-90
2021/06/23 01:08:26;;;;;;;5.35;3.60;;;;;;;-146.52;100.00;63329.72;1013487;29;20009;-88
2021/06/23 01:08:57;;;;;;;4.65;4.13;;;;;;;-146.52;100.00;63329.72;1009569;29;20082;-91
2021/06/23 01:09:27;;;;;;;5.00;4.13;;;;;;;-146.52;100.00;63329.72;1009783;29;20029;-91
2021/06/23 01:09:58;;;;;;;4.82;4.10;;;;;;;-146.52;100.00;63329.72;1013327;29;20044;-89
2021/06/23 01:10:30;;;;;;;5.00;4.32;;;;;;;-146.52;100.00;63329.72;1005832;29;20059;-92
2021/06/23 01:11:04;;;;;;;5.88;4.45;;;;;;;-146.52;100.00;63329.72;1009714;29;20009;-88
2021/06/23 01:12:01;;;;;;;5.90;4.32;;;;;;;-146.52;100.00;63329.72;1009708;29;20036;-91
2021/06/23 01:30:32;;;;;;;9.65;7.78;;;;;;;-146.52;100.00;63329.72;1025120;28;20035;-89
2021/06/23 01:33:15;;;;;;;8.52;7.65;;;;;;;-146.52;100.00;63329.72;1101936;23;20837;-93
2021/06/23 01:33:46;;;;;;;10.05;8.90;;;;;;;-146.52;100.00;63329.72;1024801;29;20030;-93
2021/06/23 01:34:17;;;;;;;8.95;8.05;;;;;;;-146.52;100.00;63329.72;1020542;29;20027;-94
2021/06/23 01:34:47;;;;;;;11.20;8.50;;;;;;;-146.52;100.00;63329.72;1024541;29;20027;-93
2021/06/23 01:35:18;;;;;;;10.75;8.55;;;;;;;-146.52;100.00;63329.72;1024528;29;20020;-94
2021/06/23 01:35:49;;;;;;;10.02;8.40;;;;;;;-146.52;100.00;63329.72;1028649;29;20023;-93
2021/06/23 01:36:20;;;;;;;9.68;8.30;;;;;;;-146.52;100.00;63329.72;1020279;29;20027;-93
2021/06/23 01:36:50;;;;;;;9.48;8.27;;;;;;;-146.52;100.00;63329.72;1024886;29;20159;-94
2021/06/23 01:37:21;;;;;;;8.60;7.80;;;;;;;-146.52;100.00;63329.72;1020384;29;20083;-93
2021/06/23 01:37:52;;;;;;;10.68;9.40;;;;;;;-146.52;100.00;63329.72;1025082;29;20015;-94
2021/06/23 01:38:22;;;;;;;10.80;8.80;;;;;;;-146.52;100.00;63329.72;1017608;29;20017;-95
2021/06/23 01:38:53;;;;;;;9.80;8.80;;;;;;;-146.52;100.00;63329.72;1021770;29;20079;-94
2021/06/23 01:39:24;;;;;;;11.32;9.68;;;;;;;-146.52;100.00;63329.72;1025783;29;20083;-95
2021/06/23 01:39:54;;;;;;;9.32;8.43;;;;;;;-146.52;100.00;63329.72;1017939;29;20056;-95
2021/06/23 01:40:25;;;;;;;10.13;9.02;;;;;;;-146.52;100.00;63329.72;1021923;29;20045;-94
2021/06/23 01:40:56;;;;;;;9.05;8.15;;;;;;;-146.52;100.00;63329.72;1017897;29;20013;-93
2021/06/23 01:41:26;;;;;;;10.07;9.05;;;;;;;-146.52;100.00;63329.72;1025848;29;20012;-95
2021/06/23 01:41:57;;;;;;;9.40;8.50;;;;;;;-146.52;100.00;63329.72;1025745;29;20165;-94
2021/06/23 01:42:27;;;;;;;10.63;9.25;;;;;;;-146.52;100.00;63329.72;1021926;29;20064;-95
2021/06/23 01:42:58;;;;;;;10.25;9.13;;;;;;;-146.52;100.00;63329.72;1021623;29;20103;-95
2021/06/23 01:43:29;;;;;;;10.18;9.10;;;;;;;-146.52;100.00;63329.72;1025799;29;20016;-95
2021/06/23 01:44:01;;;;;;;10.43;9.35;;;;;;;-146.52;100.00;63329.72;1025793;29;20043;-94
2021/06/23 01:44:32;;;;;;;10.73;9.63;;;;;;;-146.52;100.00;63329.72;1014010;29;20020;-94
2021/06/23 01:45:03;;;;;;;9.80;8.80;;;;;;;-146.52;100.00;63329.72;1025852;29;20040;-95
2021/06/23 01:45:34;;;;;;;10.00;9.00;;;;;;;-146.52;100.00;63329.72;1025762;29;20016;-95
2021/06/23 01:46:05;;;;;;;10.70;9.60;;;;;;;-146.52;100.00;63329.72;1025809;29;20024;-95
2021/06/23 01:46:35;;;;;;;10.18;9.07;;;;;;;-146.52;100.00;63329.72;1025833;29;20011;-94
2021/06/23 01:47:06;;;;;;;11.45;10.10;;;;;;;-146.52;100.00;63329.72;1025745;29;20004;-94
2021/06/23 01:47:37;;;;;;;11.63;10.48;;;;;;;-146.52;100.00;63329.72;1025772;29;20042;-93
2021/06/23 01:48:08;;;;;;;10.05;9.00;;;;;;;-146.52;100.00;63329.72;1025748;29;20035;-94
2021/06/23 01:48:39;;;;;;;10.30;9.25;;;;;;;-146.52;100.00;63329.72;1025786;28;20011;-94
2021/06/23 01:49:09;;;;;;;10.63;9.25;;;;;;;-146.52;100.00;63329.72;1021830;29;20012;-95
2021/06/23 01:49:40;;;;;;;11.10;9.55;;;;;;;-146.52;100.00;63329.72;1025560;29;20138;-94
2021/06/23 01:50:12;;;;;;;10.15;9.15;;;;;;;-146.52;100.00;63329.72;1029775;28;20022;-95
2021/06/23 01:50:57;;;;;;;10.82;9.68;;;;;;;-146.52;100.00;63329.72;1029801;28;20095;-94
2021/06/23 01:51:27;;;;;;;11.48;9.75;;;;;;;-146.52;100.00;63329.72;1029784;28;20023;-95
2021/06/23 01:51:58;;;;;;;10.80;8.68;;;;;;;-146.52;100.00;63329.72;1025658;29;20075;-95
2021/06/23 01:52:29;;;;;;;10.25;9.15;;;;;;;-146.52;100.00;63329.72;1025668;29;20015;-95
2021/06/23 01:53:00;;;;;;;9.65;8.50;;;;;;;-146.52;100.00;63329.72;1025755;29;20012;-93
2021/06/23 01:53:33;;;;;;;16.23;9.07;;;;;;;-146.52;100.00;63329.72;1025751;29;20017;-93
2021/06/23 01:54:03;;;;;;;10.43;9.38;;;;;;;-146.52;100.00;63329.72;1017803;29;20013;-96
2021/06/23 01:54:39;;;;;;;14.80;10.13;;;;;;;-146.52;100.00;63329.72;1021717;29;20027;-91
2021/06/23 01:55:26;;;;;;;9.95;8.95;;;;;;;-146.52;100.00;63329.72;1017400;29;20147;-91
2021/06/23 01:55:57;;;;;;;11.25;8.93;;;;;;;-146.52;100.00;63329.72;1024733;29;20075;-92
2021/06/23 01:56:29;;;;;;;10.25;9.25;;;;;;;-146.52;100.00;63329.72;1013323;29;20035;-92
2021/06/23 01:57:00;;;;;;;10.02;9.05;;;;;;;-146.52;100.00;63329.72;1016971;29;20021;-92
2021/06/23 01:57:30;;;;;;;9.75;8.75;;;;;;;-146.52;100.00;63329.72;1016662;29;20052;-90
2021/06/23 01:58:04;;;;;;;10.95;9.48;;;;;;;-146.52;100.00;63329.72;1020524;29;20031;-92
2021/06/23 01:58:39;;;;;;;10.00;8.95;;;;;;;-146.52;100.00;63329.72;1020495;29;20024;-92
2021/06/23 01:59:10;;;;;;;10.60;9.50;;;;;;;-146.52;100.00;63329.72;1020396;29;20022;-91
2021/06/23 01:59:41;;;;;;;10.27;9.27;;;;;;;-146.52;100.00;63329.72;1016276;29;20436;-91
2021/06/23 02:00:12;;;;;;;10.80;9.70;;;;;;;-146.52;100.00;63329.72;1024398;29;20020;-92
2021/06/23 02:01:06;;;;;;;9.98;8.98;;;;;;;-146.52;100.00;63329.72;1020393;29;20021;-91
2021/06/23 02:01:59;;;;;;;9.75;8.75;;;;;;;-146.52;100.00;63329.72;1020209;29;20027;-91
2021/06/23 02:02:30;;;;;;;9.65;8.65;;;;;;;-146.52;100.00;63329.72;1017944;29;20047;-92
2021/06/23 02:03:05;;;;;;;10.13;9.00;;;;;;;-146.52;100.00;63329.72;1024361;29;20019;-92
2021/06/23 02:03:54;;;;;;;10.35;9.35;;;;;;;-146.52;100.00;63329.72;1016395;29;20013;-91
2021/06/23 02:04:30;;;;;;;11.05;9.60;;;;;;;-146.52;100.00;63329.72;1024297;29;20023;-92
2021/06/23 02:05:13;;;;;;;9.60;8.60;;;;;;;-146.52;100.00;63329.72;1020116;29;20020;-93
2021/06/23 02:05:51;;;;;;;11.95;10.35;;;;;;;-146.52;100.00;63329.72;1016272;29;20017;-91
2021/06/23 02:06:44;;;;;;;11.88;9.25;;;;;;;-146.52;100.00;63329.72;1012341;29;20068;-92
2021/06/23 02:07:41;;;;;;;11.02;9.93;;;;;;;-146.52;100.00;63329.72;1028069;29;20023;-92
2021/06/23 02:08:14;;;;;;;10.65;9.43;;;;;;;-146.52;100.00;63329.72;1012938;29;20109;-92
2021/06/23 02:08:55;;;;;;;10.85;9.77;;;;;;;-146.52;100.00;63329.72;1005524;29;20119;-91
2021/06/23 02:09:57;;;;;;;9.38;8.48;;;;;;;-146.52;100.00;63329.72;1021065;29;20444;-92
2021/06/23 02:10:42;;;;;;;13.43;9.18;;;;;;;-146.52;100.00;63329.72;1022251;29;20184;-91
2021/06/23 02:11:31;;;;;;;10.20;8.60;;;;;;;-146.52;100.00;63329.72;1019020;29;20089;-91
2021/06/23 02:12:25;;;;;;;9.75;8.18;;;;;;;-146.52;100.00;63329.72;1025269;29;20026;-93
2021/06/23 02:13:14;;;;;;;9.75;8.75;;;;;;;-146.52;100.00;63329.72;1012455;29;20032;-91
2021/06/23 02:14:06;;;;;;;9.93;8.82;;;;;;;-146.52;100.00;63329.72;1015427;29;20025;-93
2021/06/23 02:14:41;;;;;;;10.52;8.82;;;;;;;-146.52;100.00;63329.72;1017632;29;20021;-91
2021/06/23 02:15:11;;;;;;;11.68;8.95;;;;;;;-146.52;100.00;63329.72;1017827;29;20016;-92
2021/06/23 02:15:42;;;;;;;9.00;8.07;;;;;;;-146.52;100.00;63329.72;1017737;29;20039;-93
2021/06/23 02:16:12;;;;;;;9.38;8.40;;;;;;;-146.52;100.00;63329.72;1017780;29;20004;-92
2021/06/23 02:16:43;;;;;;;9.85;8.85;;;;;;;-146.52;100.00;63329.72;1017665;29;20036;-93
2021/06/23 02:17:14;;;;;;;10.30;8.25;;;;;;;-146.52;100.00;63329.72;1017726;29;20020;-93
2021/06/23 02:17:44;;;;;;;10.38;8.93;;;;;;;-146.52;100.00;63329.72;1017764;29;20024;-93
2021/06/23 02:18:15;;;;;;;9.75;8.57;;;;;;;-146.52;100.00;63329.72;1033636;28;20027;-96
2021/06/23 02:18:46;;;;;;;9.50;8.50;;;;;;;-146.52;100.00;63329.72;1017445;29;20036;-93
2021/06/23 02:19:16;;;;;;;9.88;8.88;;;;;;;-146.52;100.00;63329.72;1025363;29;20012;-92
2021/06/23 02:19:47;;;;;;;9.57;8.50;;;;;;;-146.52;100.00;63329.72;1020827;29;20043;-93
2021/06/23 02:20:18;;;;;;;9.20;8.30;;;;;;;-146.52;100.00;63329.72;1020599;29;20020;-93
2021/06/23 02:20:52;;;;;;;10.35;8.73;;;;;;;-146.52;100.00;63329.72;1028320;29;20004;-92
2021/06/23 02:21:22;;;;;;;9.50;8.55;;;;;;;-146.52;100.00;63329.72;1013008;29;20017;-91
2021/06/23 02:21:53;;;;;;;8.98;8.07;;;;;;;-146.52;100.00;63329.72;1024307;29;20060;-91
2021/06/23 02:22:28;;;;;;;8.80;7.72;;;;;;;-146.52;100.00;63329.72;1016373;29;20027;-92
2021/06/23 02:22:58;;;;;;;10.25;8.70;;;;;;;-146.52;100.00;63329.72;1020217;29;20067;-93
2021/06/23 02:23:29;;;;;;;10.27;8.80;;;;;;;-146.52;100.00;63329.72;1012815;29;20061;-92
2021/06/23 02:24:00;;;;;;;10.10;8.95;;;;;;;-146.52;100.00;63329.72;1013106;29;20035;-92
2021/06/23 02:24:30;;;;;;;10.75;9.27;;;;;;;-146.52;100.00;63329.72;1024882;29;20024;-92
2021/06/23 02:25:10;;;;;;;9.60;8.60;;;;;;;-146.52;100.00;63329.72;1009294;29;20111;-92
2021/06/23 02:25:41;;;;;;;8.70;7.80;;;;;;;-146.52;100.00;63329.72;1016739;29;20389;-92
2021/06/23 02:26:12;;;;;;;8.63;7.40;;;;;;;-146.52;100.00;63329.72;1013191;29;20104;-91
2021/06/23 02:26:42;;;;;;;9.25;8.23;;;;;;;-146.52;100.00;63329.72;1020957;29;20076;-91
2021/06/23 02:27:16;;;;;;;9.48;8.48;;;;;;;-146.52;100.00;63329.72;1013676;29;20101;-92
2021/06/23 02:27:46;;;;;;;8.73;7.82;;;;;;;-146.52;100.00;63329.72;1013598;29;20005;-91
2021/06/23 02:28:18;;;;;;;9.40;7.78;;;;;;;-146.52;100.00;63329.72;1020700;29;20020;-92
2021/06/23 02:28:48;;;;;;;9.65;7.90;;;;;;;-146.52;100.00;63329.72;1020838;29;20137;-93
2021/06/23 02:29:19;;;;;;;8.57;7.68;;;;;;;-146.52;100.00;63329.72;1016593;29;20056;-92
2021/06/23 02:29:49;;;;;;;10.15;9.15;;;;;;;-146.52;100.00;63329.72;1024862;29;20047;-93
2021/06/23 02:30:20;;;;;;;9.10;8.20;;;;;;;-146.52;100.00;63329.72;1017090;29;20088;-92
2021/06/23 02:30:51;;;;;;;9.50;8.48;;;;;;;-146.52;100.00;63329.72;1021650;29;20008;-90
2021/06/23 02:31:21;;;;;;;8.55;7.60;;;;;;;-146.52;100.00;63329.72;1025481;29;20075;-94
2021/06/23 02:31:52;;;;;;;8.43;7.63;;;;;;;-146.52;100.00;63329.72;1025610;29;20034;-95
2021/06/23 02:32:24;;;;;;;9.25;8.18;;;;;;;-146.52;100.00;63329.72;1021426;29;20011;-93
2021/06/23 02:32:55;;;;;;;10.45;8.18;;;;;;;-146.52;100.00;63329.72;1013614;29;20030;-92
2021/06/23 02:33:25;;;;;;;11.77;8.05;;;;;;;-146.52;100.00;63329.72;1016831;29;20028;-92
2021/06/23 02:33:56;;;;;;;10.48;8.25;;;;;;;-146.52;100.00;63329.72;1024966;29;20058;-93
2021/06/23 02:34:26;;;;;;;10.43;8.02;;;;;;;-146.52;100.00;63329.72;1017066;29;20157;-91
2021/06/23 02:34:58;;;;;;;8.13;7.32;;;;;;;-146.52;100.00;63329.72;1024638;29;20122;-91
2021/06/23 02:35:31;;;;;;;9.32;7.60;;;;;;;-146.52;100.00;63329.72;1017229;29;20043;-91
2021/06/23 02:36:02;;;;;;;10.55;7.70;;;;;;;-146.52;100.00;63329.72;1033229;28;20019;-92
2021/06/23 02:36:33;;;;;;;8.85;7.95;;;;;;;-146.52;100.00;63329.72;1021350;29;20020;-91
2021/06/23 02:37:04;;;;;;;9.23;7.78;;;;;;;-146.52;100.00;63329.72;1024868;29;20020;-91
2021/06/23 02:37:35;;;;;;;8.63;7.63;;;;;;;-146.52;100.00;63329.72;1020947;29;20023;-92
2021/06/23 02:38:07;;;;;;;8.25;7.45;;;;;;;-146.52;100.00;63329.72;1017179;29;20021;-92
2021/06/23 02:38:37;;;;;;;8.45;7.05;;;;;;;-146.52;100.00;63329.72;1024983;29;20024;-93
2021/06/23 02:39:08;;;;;;;8.32;7.53;;;;;;;-146.52;100.00;63329.72;1024725;29;20028;-92
2021/06/23 02:39:39;;;;;;;8.93;7.68;;;;;;;-146.52;100.00;63329.72;1024831;29;20011;-90
2021/06/23 02:40:10;;;;;;;7.90;6.60;;;;;;;-146.52;100.00;63329.72;1024566;29;20110;-91
2021/06/23 02:40:40;;;;;;;10.70;7.43;;;;;;;-146.52;100.00;63329.72;1025103;29;20079;-91
2021/06/23 02:41:11;;;;;;;8.40;7.38;;;;;;;-146.52;100.00;63329.72;1020727;29;20055;-93
2021/06/23 02:41:42;;;;;;;7.45;6.65;;;;;;;-146.52;100.00;63329.72;1024035;29;20027;-92
2021/06/23 02:42:12;;;;;;;8.57;7.70;;;;;;;-146.52;100.00;63329.72;1028650;28;20027;-91
2021/06/23 02:42:43;;;;;;;8.90;7.03;;;;;;;-146.52;100.00;63329.72;1020693;29;20047;-90
2021/06/23 02:43:14;;;;;;;10.13;8.07;;;;;;;-146.52;100.00;63329.72;1028666;28;20430;-92
2021/06/23 02:43:44;;;;;;;8.75;7.82;;;;;;;-146.52;100.00;63329.72;1016875;29;20047;-92
2021/06/23 02:44:15;;;;;;;8.82;7.93;;;;;;;-146.52;100.00;63329.72;1020858;29;20086;-93
2021/06/23 02:44:46;;;;;;;8.40;7.50;;;;;;;-146.52;100.00;63329.72;1016872;29;20093;-92
2021/06/23 02:45:16;;;;;;;8.90;8.00;;;;;;;-146.52;100.00;63329.72;1024554;29;20107;-93
2021/06/23 02:45:47;;;;;;;8.35;7.28;;;;;;;-146.52;100.00;63329.72;1016793;29;20056;-94
2021/06/23 02:46:18;;;;;;;9.68;7.95;;;;;;;-146.52;100.00;63329.72;1020720;29;20096;-92
2021/06/23 02:46:48;;;;;;;8.98;8.07;;;;;;;-146.52;100.00;63329.72;1016683;29;20119;-92
2021/06/23 02:47:20;;;;;;;9.75;8.38;;;;;;;-146.52;100.00;63329.72;1024503;29;20031;-94
2021/06/23 02:47:50;;;;;;;8.40;7.50;;;;;;;-146.52;100.00;63329.72;1024124;29;20031;-93
2021/06/23 02:48:21;;;;;;;9.30;8.27;;;;;;;-146.52;100.00;63329.72;1020960;29;20028;-90
2021/06/23 02:48:52;;;;;;;8.63;7.72;;;;;;;-146.52;100.00;63329.72;1017348;29;20008;-90
2021/06/23 02:49:22;;;;;;;8.13;7.32;;;;;;;-146.52;100.00;63329.72;1021042;29;20481;-90
2021/06/23 02:49:53;;;;;;;9.75;8.43;;;;;;;-146.52;100.00;63329.72;1024766;29;20129;-91
2021/06/23 02:50:23;;;;;;;9.73;7.13;;;;;;;-146.52;100.00;63329.72;1020817;29;20083;-90
2021/06/23 02:50:59;;;;;;;7.88;7.07;;;;;;;-146.52;100.00;63329.72;1021113;29;20069;-89
2021/06/23 02:51:31;;;;;;;8.45;7.28;;;;;;;-146.52;100.00;63329.72;1013300;29;20134;-89
2021/06/23 02:52:02;;;;;;;9.40;7.78;;;;;;;-146.52;100.00;63329.72;1020904;29;20084;-91
2021/06/23 02:52:34;;;;;;;7.93;7.13;;;;;;;-146.52;100.00;63329.72;1017245;29;20040;-91
2021/06/23 02:53:05;;;;;;;8.75;7.60;;;;;;;-146.52;100.00;63329.72;1021235;29;20024;-91
2021/06/23 02:53:36;;;;;;;8.98;7.63;;;;;;;-146.52;100.00;63329.72;1017414;29;20083;-93
2021/06/23 02:54:09;;;;;;;8.10;7.30;;;;;;;-146.52;100.00;63329.72;1021080;29;20099;-91
2021/06/23 02:54:41;;;;;;;8.45;7.55;;;;;;;-146.52;100.00;63329.72;1017157;29;20025;-93
2021/06/23 02:55:19;;;;;;;9.10;6.78;;;;;;;-146.52;100.00;63329.72;1020331;29;20051;-93
2021/06/23 02:55:49;;;;;;;9.55;7.40;;;;;;;-146.52;100.00;63329.72;1028391;29;20023;-94
2021/06/23 02:56:20;;;;;;;8.65;7.60;;;;;;;-146.52;100.00;63329.72;1020308;29;20055;-92
2021/06/23 02:56:51;;;;;;;8.93;7.97;;;;;;;-146.52;100.00;63329.72;1020464;29;20084;-93
2021/06/23 02:57:22;;;;;;;8.30;7.50;;;;;;;-146.52;100.00;63329.72;1012466;29;20388;-93
2021/06/23 02:57:52;;;;;;;8.48;7.13;;;;;;;-146.52;100.00;63329.72;1024247;29;20051;-93
2021/06/23 02:58:24;;;;;;;10.65;7.93;;;;;;;-146.52;100.00;63329.72;1025457;29;20087;-95
2021/06/23 02:58:54;;;;;;;8.98;8.07;;;;;;;-146.52;100.00;63329.72;1017621;29;20048;-94
2021/06/23 02:59:25;;;;;;;9.60;7.07;;;;;;;-146.52;100.00;63329.72;1025578;29;20083;-95
2021/06/23 02:59:56;;;;;;;9.88;8.70;;;;;;;-146.52;100.00;63329.72;1017673;29;20084;-94
2021/06/23 03:00:26;;;;;;;7.88;7.07;;;;;;;-146.52;100.00;63329.72;1021498;29;20062;-94
2021/06/23 03:00:57;;;;;;;8.18;7.38;;;;;;;-146.52;100.00;63329.72;1021610;29;20071;-94
2021/06/23 03:01:30;;;;;;;8.85;7.75;;;;;;;-146.52;100.00;63329.72;1021520;29;20009;-93
2021/06/23 03:02:01;;;;;;;10.95;7.38;;;;;;;-146.52;100.00;63329.72;1017552;29;20009;-94
2021/06/23 03:02:32;;;;;;;8.20;7.13;;;;;;;-146.52;100.00;63329.72;1029418;28;20015;-94
2021/06/23 03:03:03;;;;;;;9.10;7.57;;;;;;;-146.52;100.00;63329.72;1017392;29;20035;-93
2021/06/23 03:03:34;;;;;;;9.00;7.85;;;;;;;-146.52;100.00;63329.72;1021348;29;20021;-92
2021/06/23 03:04:04;;;;;;;10.48;8.35;;;;;;;-146.52;100.00;63329.72;1009538;29;20085;-93
2021/06/23 03:04:35;;;;;;;8.50;7.15;;;;;;;-146.52;100.00;63329.72;1021405;29;20004;-94
2021/06/23 03:05:06;;;;;;;8.45;7.55;;;;;;;-146.52;100.00;63329.72;1009665;29;20128;-93
2021/06/23 03:05:37;;;;;;;9.65;8.10;;;;;;;-146.52;100.00;63329.72;1021062;29;20103;-92
2021/06/23 03:06:08;;;;;;;8.48;7.43;;;;;;;-146.52;100.00;63329.72;1017415;29;20020;-92
2021/06/23 03:06:38;;;;;;;8.35;7.47;;;;;;;-146.52;100.00;63329.72;1017316;29;20021;-93
2021/06/23 03:07:09;;;;;;;7.95;7.10;;;;;;;-146.52;100.00;63329.72;1021200;29;20092;-93
2021/06/23 03:07:43;;;;;;;8.82;7.93;;;;;;;-146.52;100.00;63329.72;1029233;28;20035;-93
2021/06/23 03:08:14;;;;;;;8.93;7.40;;;;;;;-146.52;100.00;63329.72;1017289;29;20025;-92
2021/06/23 03:08:45;;;;;;;8.77;7.00;;;;;;;-146.52;100.00;63329.72;1025126;29;20083;-93
2021/06/23 03:09:15;;;;;;;9.15;7.88;;;;;;;-146.52;100.00;63329.72;1021498;28;20009;-94
2021/06/23 03:09:46;;;;;;;9.18;8.27;;;;;;;-146.52;100.00;63329.72;1017299;29;20025;-92
2021/06/23 03:10:17;;;;;;;9.05;7.60;;;;;;;-146.52;100.00;63329.72;1021252;29;20008;-92
2021/06/23 03:10:47;;;;;;;10.55;8.65;;;;;;;-146.52;100.00;63329.72;1029387;29;20023;-93
2021/06/23 03:11:18;;;;;;;9.35;8.32;;;;;;;-146.52;100.00;63329.72;1017585;29;20039;-93
2021/06/23 03:11:49;;;;;;;9.20;8.02;;;;;;;-146.52;100.00;63329.72;1017508;29;20100;-93
2021/06/23 03:12:19;;;;;;;12.18;7.57;;;;;;;-146.52;100.00;63329.72;1021316;29;20087;-91
2021/06/23 03:12:50;;;;;;;11.52;8.27;;;;;;;-146.52;100.00;63329.72;1017253;29;20068;-92
2021/06/23 03:13:21;;;;;;;8.57;7.03;;;;;;;-146.52;100.00;63329.72;1029025;28;20011;-93
2021/06/23 03:13:52;;;;;;;9.40;7.47;;;;;;;-146.52;100.00;63329.72;1017426;29;20035;-93
2021/06/23 03:14:23;;;;;;;8.02;7.22;;;;;;;-146.52;100.00;63329.72;1025251;29;20016;-92
2021/06/23 03:14:56;;;;;;;8.40;7.22;;;;;;;-146.52;100.00;63329.72;1013542;29;20029;-92
2021/06/23 03:15:31;;;;;;;8.15;7.35;;;;;;;-146.52;100.00;63329.72;1025263;28;20059;-93
2021/06/23 03:16:02;;;;;;;9.20;7.95;;;;;;;-146.52;100.00;63329.72;1021486;29;20040;-92